Elizabeth City, NC

5:04 PM EST on February 12, 2016 (GMT -0500)
Forest Park II | | Change Station
CLOSE
Current Station
Personal Weather Station
Location: Elizabeth City, NC
Elevation: 46 ft
Nearby Weather Stations
Active Advisory: Winter Storm Warning

Elev 46 ft 36.30 °N, 76.27 °W | Updated 2 seconds ago

Light Snow
Light Snow Mist
29.1 °F
Feels Like 29 °F
N
0.0
Wind Variable Wind from NNW
Gusts 0.0 mph

Today
High -- | Low -- °F
--% Chance of Precip.
Yesterday
High -- | Low -- °F
Precip. -- in
Pressure 30.03 in
Visibility 5.0 miles
Clouds Scattered Clouds 600 ft
Mostly Cloudy 4000 ft
Overcast 4900 ft
Windchill 29 °F
Dew Point 28 °F
Humidity 94%
Rainfall 0.00 in
Snow Depth Not available.
6:56 AM 5:42 PM
Waxing Crescent, 24% visible
SPECI KECG 122201Z 03006KT 5SM -SN BR SCT006 BKN040 OVC049 M02/M03 A3003 RMK AO2 P0000 T10171028
Pressure 30.03 in
Visibility 5.0 miles
Clouds Scattered Clouds 600 ft
Mostly Cloudy 4000 ft
Overcast 4900 ft
Windchill 29 °F
Dew Point 28 °F
Humidity 94%
Rainfall 0.00 in
Snow Depth Not available.
6:56 AM 5:42 PM
Waxing Crescent, 24% visible
SPECI KECG 122201Z 03006KT 5SM -SN BR SCT006 BKN040 OVC049 M02/M03 A3003 RMK AO2 P0000 T10171028

10-Day Weather Forecast

Almanac

Astronomy

Feb. 12, 2016 Rise Set
Actual Time
Civil Twilight
Nautical Twilight
Astronomical Twilight
Moon
Length of Visible Light
Length of Day
Tomorrow will be .
, % of the Moon is Illuminated

Today's Extremes

State Highs State Lows

Community

WunderPhotos

Upload Photos

1,892,411 photos uploaded!

WunderBlog® & News

Nearby

Air Quality

  Air Quality AQ Index Pollutant
Not available.

Snow Depth

Station Depth Elevation

Earthquake Activity

City Distance Mag. Time & Date
Minimum magnitude displayed is 2.5.

Coastal Water Temperatures

Place Temperature

Stations

Nearby Weather Stations

Station Location Temp. Windchill Dew Point Humidity Wind Precip. Elev Updated Type
                   

Watches & Warnings

Winter Storm Warning
Issued: 4:22 PM EST Feb. 12, 2016 – National Weather Service

... Winter Storm Warning remains in effect until midnight EST
tonight...

* areas affected: northeast North Carolina.

* Hazards: snow.

* Additional accumulations: 1 to 2 inches... highest along the
coast.

* Temperatures: falling into the low to mid 20s tonight.

* Timing: snow will continue through the rest of the
afternoon... impacting the afternoon commute.

* Impacts: roads will become snow covered and hazardous. Travel
will be impacted Friday.

Precautionary/preparedness actions...

A Winter Storm Warning means significant amounts of snow is
expected or occurring. This will make travel very hazardous or
impossible.